createdAt,value
2024-01-24T00:00:42.974Z,8.00
2024-01-24T00:03:09.906Z,8.00
2024-01-24T00:05:36.866Z,8.10
2024-01-24T00:08:03.896Z,8.10
2024-01-24T00:10:30.678Z,8.10
2024-01-24T00:12:57.652Z,8.10
2024-01-24T00:15:24.581Z,8.20
2024-01-24T00:17:51.636Z,8.20
2024-01-24T00:20:18.448Z,8.20
2024-01-24T00:22:45.326Z,8.20
2024-01-24T00:25:12.456Z,8.30
2024-01-24T00:27:39.361Z,8.20
2024-01-24T00:30:06.947Z,8.20
2024-01-24T00:32:33.892Z,8.30
2024-01-24T00:35:00.726Z,8.20
2024-01-24T00:37:27.707Z,8.20
2024-01-24T00:39:54.595Z,8.30
2024-01-24T00:42:21.528Z,8.30
2024-01-24T00:44:51.931Z,8.30
2024-01-24T00:47:20.354Z,8.20
2024-01-24T00:49:47.711Z,8.30
2024-01-24T00:52:15.004Z,8.40
2024-01-24T00:54:41.947Z,8.40
2024-01-24T00:57:08.930Z,8.40
2024-01-24T00:59:35.759Z,8.40
2024-01-24T01:02:03.835Z,8.30
2024-01-24T01:04:30.816Z,8.40
2024-01-24T01:06:57.682Z,8.50
2024-01-24T01:09:24.550Z,8.50
2024-01-24T01:11:51.346Z,8.50
2024-01-24T01:14:18.137Z,8.60
2024-01-24T01:16:44.918Z,8.60
2024-01-24T01:19:11.964Z,8.60
2024-01-24T01:21:41.546Z,8.70
2024-01-24T01:24:10.536Z,8.90
2024-01-24T01:26:37.551Z,9.10
2024-01-24T01:29:04.823Z,9.10
2024-01-24T01:31:31.660Z,9.10
2024-01-24T01:33:58.774Z,9.30
2024-01-24T01:36:25.670Z,9.40
2024-01-24T01:38:52.523Z,9.50
2024-01-24T01:41:19.361Z,9.50
2024-01-24T01:43:46.345Z,9.70
2024-01-24T01:46:20.045Z,9.70
2024-01-24T01:48:47.942Z,9.80
2024-01-24T01:51:15.174Z,9.80
2024-01-24T01:53:42.099Z,10.00
2024-01-24T01:56:11.160Z,10.00
2024-01-24T01:58:39.904Z,10.10
2024-01-24T02:01:08.353Z,10.20
2024-01-24T02:03:35.528Z,10.30
2024-01-24T02:06:03.111Z,10.30
2024-01-24T02:08:32.848Z,10.40
2024-01-24T02:11:00.254Z,10.50
2024-01-24T02:13:33.952Z,10.40
2024-01-24T02:16:01.147Z,10.50
2024-01-24T02:18:28.195Z,10.50
2024-01-24T02:20:55.479Z,10.50
2024-01-24T02:23:26.957Z,10.60
2024-01-24T02:25:54.411Z,10.60
2024-01-24T02:28:21.606Z,10.80
2024-01-24T02:30:48.622Z,10.70
2024-01-24T02:33:15.921Z,10.70
2024-01-24T02:35:42.934Z,10.80
2024-01-24T02:38:09.794Z,10.80
2024-01-24T02:40:36.698Z,10.90
2024-01-24T02:43:03.735Z,10.90
2024-01-24T02:45:30.574Z,10.90
2024-01-24T02:47:57.437Z,11.00
2024-01-24T02:50:24.393Z,10.90
2024-01-24T02:52:51.377Z,10.90
2024-01-24T02:55:18.254Z,10.90
2024-01-24T02:57:48.250Z,11.00
2024-01-24T03:00:24.356Z,11.10
2024-01-24T03:02:55.450Z,11.10
2024-01-24T03:05:24.490Z,11.10
2024-01-24T03:07:53.535Z,11.10
2024-01-24T03:10:24.706Z,11.00
2024-01-24T03:12:59.060Z,11.10
2024-01-24T03:15:29.060Z,11.40
2024-01-24T03:17:56.720Z,11.00
2024-01-24T03:20:26.174Z,11.10
2024-01-24T03:22:54.047Z,11.10
2024-01-24T03:25:23.853Z,11.10
2024-01-24T03:27:54.787Z,11.20
2024-01-24T03:30:24.288Z,11.20
2024-01-24T03:32:51.195Z,11.20
2024-01-24T03:35:18.145Z,11.30
2024-01-24T03:37:44.937Z,11.20
2024-01-24T03:40:12.075Z,11.30
2024-01-24T03:42:38.931Z,11.40
2024-01-24T03:45:06.231Z,11.30
2024-01-24T03:47:33.165Z,11.30
2024-01-24T03:50:00.151Z,11.50
2024-01-24T03:52:27.057Z,11.50
2024-01-24T03:54:54.014Z,11.50
2024-01-24T03:57:20.922Z,11.40
2024-01-24T03:59:47.769Z,11.40
2024-01-24T04:02:14.554Z,11.50
2024-01-24T04:04:41.407Z,11.60
2024-01-24T04:07:08.346Z,11.60
2024-01-24T04:09:35.233Z,11.60
2024-01-24T04:12:02.188Z,11.60
2024-01-24T04:14:28.981Z,11.60
2024-01-24T04:16:55.848Z,11.60
2024-01-24T04:19:22.919Z,11.60
2024-01-24T04:21:49.774Z,11.60
2024-01-24T04:24:17.020Z,11.60
2024-01-24T04:26:43.918Z,11.50
2024-01-24T04:29:13.526Z,11.60
2024-01-24T04:31:42.608Z,11.60
2024-01-24T04:34:09.619Z,11.60
2024-01-24T04:36:37.042Z,11.60
2024-01-24T04:39:04.020Z,11.70
2024-01-24T04:41:30.860Z,11.90
2024-01-24T04:43:57.666Z,11.80
2024-01-24T04:46:24.457Z,11.90
2024-01-24T04:48:51.382Z,11.90
2024-01-24T04:51:18.230Z,11.90
2024-01-24T04:53:45.111Z,12.00
2024-01-24T04:56:11.952Z,12.00
2024-01-24T04:58:40.737Z,12.00
2024-01-24T05:01:08.053Z,12.00
2024-01-24T05:03:35.137Z,11.90
2024-01-24T05:06:07.602Z,11.90
2024-01-24T05:08:37.599Z,11.90
2024-01-24T05:11:05.612Z,12.00
2024-01-24T05:13:33.122Z,12.10
2024-01-24T05:16:00.581Z,12.00
2024-01-24T05:18:27.656Z,12.00
2024-01-24T05:20:54.634Z,12.20
2024-01-24T05:23:21.851Z,12.20
2024-01-24T05:25:48.804Z,12.00
2024-01-24T05:28:15.624Z,11.80
2024-01-24T05:30:42.565Z,11.80
2024-01-24T05:33:11.512Z,11.80
2024-01-24T05:35:38.471Z,11.80
2024-01-24T05:38:05.480Z,12.00
2024-01-24T05:40:32.499Z,11.80
2024-01-24T05:43:00.673Z,11.90
2024-01-24T05:45:27.722Z,12.10
2024-01-24T05:47:54.687Z,11.90
2024-01-24T05:50:21.696Z,12.00
2024-01-24T05:52:48.556Z,12.00
2024-01-24T05:55:15.434Z,11.80
2024-01-24T05:57:43.159Z,11.90
2024-01-24T06:00:15.735Z,11.80
2024-01-24T06:02:44.458Z,11.80
2024-01-24T06:05:12.093Z,11.70
2024-01-24T06:07:40.201Z,11.60
2024-01-24T06:10:08.304Z,11.50
2024-01-24T06:12:35.162Z,11.30
2024-01-24T06:15:03.330Z,11.30
2024-01-24T06:17:31.012Z,11.20
2024-01-24T06:19:58.834Z,11.10
2024-01-24T06:22:25.626Z,11.00
2024-01-24T06:24:52.530Z,11.00
2024-01-24T06:27:19.508Z,11.10
2024-01-24T06:30:16.892Z,10.80
2024-01-24T06:32:33.147Z,11.00
2024-01-24T06:34:59.958Z,11.20
2024-01-24T06:37:26.811Z,11.30
2024-01-24T06:39:53.772Z,11.30
2024-01-24T06:42:21.237Z,11.40
2024-01-24T06:44:48.248Z,11.30
2024-01-24T06:47:15.296Z,11.10
2024-01-24T06:49:42.318Z,11.00
2024-01-24T06:52:09.164Z,11.10
2024-01-24T06:54:36.790Z,11.10
2024-01-24T06:57:04.711Z,11.00
2024-01-24T06:59:32.531Z,11.10
2024-01-24T07:02:00.340Z,11.10
2024-01-24T07:04:27.441Z,11.20
2024-01-24T07:06:54.473Z,11.10
2024-01-24T07:09:21.421Z,10.80
2024-01-24T07:11:48.223Z,11.10
2024-01-24T07:14:16.162Z,11.30
2024-01-24T07:16:45.052Z,11.20
2024-01-24T07:19:12.026Z,11.20
2024-01-24T07:21:39.119Z,11.30
2024-01-24T07:24:06.249Z,11.20
2024-01-24T07:26:33.245Z,10.90
2024-01-24T07:29:00.810Z,11.20
2024-01-24T07:31:27.667Z,11.10
2024-01-24T07:33:54.568Z,11.10
2024-01-24T07:36:24.361Z,11.20
2024-01-24T07:38:51.248Z,11.30
2024-01-24T07:41:18.212Z,11.30
2024-01-24T07:43:45.040Z,11.20
2024-01-24T07:46:12.523Z,11.20
2024-01-24T07:48:40.064Z,11.20
2024-01-24T07:51:07.188Z,11.20
2024-01-24T07:53:34.678Z,11.00
2024-01-24T07:56:10.946Z,11.10
2024-01-24T07:58:46.441Z,11.00
2024-01-24T08:01:13.798Z,11.00
2024-01-24T08:03:42.404Z,11.00
2024-01-24T08:06:09.978Z,10.90
2024-01-24T08:08:36.884Z,11.00
2024-01-24T08:11:03.996Z,11.00
2024-01-24T08:13:33.069Z,11.00
2024-01-24T08:16:00.058Z,10.90
2024-01-24T08:18:27.174Z,10.90
2024-01-24T08:20:56.451Z,11.00
2024-01-24T08:23:28.835Z,11.00
2024-01-24T08:26:01.105Z,11.00
2024-01-24T08:28:27.989Z,11.10
2024-01-24T08:30:54.942Z,11.10
2024-01-24T08:33:22.304Z,11.10
2024-01-24T08:35:49.185Z,11.00
2024-01-24T08:38:15.965Z,11.00
2024-01-24T08:40:43.140Z,11.10
2024-01-24T08:43:10.552Z,11.10
2024-01-24T08:45:37.449Z,11.10
2024-01-24T08:48:05.130Z,11.10
2024-01-24T08:50:33.201Z,11.00
2024-01-24T08:53:00.161Z,11.00
2024-01-24T08:55:27.171Z,11.00
2024-01-24T08:57:54.377Z,11.00
2024-01-24T09:00:21.486Z,10.90
2024-01-24T09:02:48.369Z,10.90
2024-01-24T09:05:19.871Z,11.00
2024-01-24T09:07:46.962Z,11.00
2024-01-24T09:10:14.225Z,10.90
2024-01-24T09:12:41.432Z,11.00
2024-01-24T09:15:09.353Z,11.00
2024-01-24T09:17:36.990Z,10.90
2024-01-24T09:20:04.776Z,11.00
2024-01-24T09:22:32.145Z,11.10
2024-01-24T09:25:00.495Z,11.10
2024-01-24T09:27:28.498Z,11.00
2024-01-24T09:29:55.420Z,11.00
2024-01-24T09:32:22.261Z,11.10
2024-01-24T09:34:49.386Z,11.10
2024-01-24T09:37:16.846Z,11.20
2024-01-24T09:39:43.641Z,11.20
2024-01-24T09:42:19.868Z,11.10
2024-01-24T09:44:50.169Z,11.10
2024-01-24T09:47:20.880Z,11.10
2024-01-24T09:49:47.925Z,11.10
2024-01-24T09:52:18.198Z,11.10
2024-01-24T09:54:46.492Z,11.20
2024-01-24T09:57:16.754Z,11.20
2024-01-24T09:59:43.772Z,11.10
2024-01-24T10:02:11.433Z,11.10
2024-01-24T10:04:39.073Z,11.00
2024-01-24T10:07:09.939Z,11.00
2024-01-24T10:09:37.092Z,11.00
2024-01-24T10:12:05.337Z,11.00
2024-01-24T10:14:33.441Z,11.10
2024-01-24T10:17:00.836Z,11.20
2024-01-24T10:19:28.693Z,11.20
2024-01-24T10:21:56.019Z,11.10
2024-01-24T10:24:23.057Z,11.00
2024-01-24T10:26:50.213Z,11.10
2024-01-24T10:29:17.718Z,11.00
2024-01-24T10:31:44.784Z,11.00
2024-01-24T10:34:12.308Z,11.10
2024-01-24T10:36:43.704Z,11.20
2024-01-24T10:39:15.512Z,11.10
2024-01-24T10:41:45.216Z,11.20
2024-01-24T10:44:18.081Z,11.50
2024-01-24T10:46:45.257Z,12.00
2024-01-24T10:49:13.878Z,12.70
2024-01-24T10:51:43.285Z,12.60
2024-01-24T10:54:13.122Z,12.60
2024-01-24T10:56:42.209Z,13.10
2024-01-24T10:59:14.292Z,13.00
2024-01-24T11:01:43.981Z,12.50
2024-01-24T11:04:13.209Z,12.20
2024-01-24T11:06:46.470Z,11.80
2024-01-24T11:09:54.748Z,11.60
2024-01-24T11:12:22.892Z,11.40
2024-01-24T11:14:50.823Z,11.30
2024-01-24T11:17:18.175Z,11.20
2024-01-24T11:19:45.513Z,11.10
2024-01-24T11:22:27.309Z,11.10
2024-01-24T11:25:00.108Z,11.00
2024-01-24T11:27:36.465Z,11.00
2024-01-24T11:30:40.222Z,11.10
2024-01-24T11:33:15.923Z,11.00
2024-01-24T11:35:48.283Z,11.10
2024-01-24T11:38:26.052Z,11.00
2024-01-24T11:41:02.277Z,11.00
2024-01-24T11:43:36.952Z,11.00
2024-01-24T11:46:10.667Z,11.00
2024-01-24T11:48:40.856Z,11.00
2024-01-24T11:51:11.349Z,11.00
2024-01-24T11:53:41.012Z,10.90
2024-01-24T11:56:18.083Z,11.00
2024-01-24T11:58:45.381Z,11.00
2024-01-24T12:01:13.758Z,11.00
2024-01-24T12:03:49.360Z,10.90
2024-01-24T12:06:18.394Z,10.90
2024-01-24T12:08:50.089Z,10.90
2024-01-24T12:11:19.108Z,10.90
2024-01-24T12:13:46.899Z,10.90
2024-01-24T12:16:14.204Z,11.00
2024-01-24T12:18:42.928Z,11.10
2024-01-24T12:21:11.197Z,11.20
2024-01-24T12:23:39.516Z,11.40
2024-01-24T12:26:07.091Z,11.30
2024-01-24T12:28:34.759Z,11.40
2024-01-24T12:31:05.972Z,11.40
2024-01-24T12:33:37.465Z,11.40
2024-01-24T12:36:06.508Z,11.30
2024-01-24T12:38:37.701Z,11.30
2024-01-24T12:41:05.952Z,11.10
2024-01-24T12:43:33.709Z,11.10
2024-01-24T12:46:10.605Z,11.70
2024-01-24T12:48:39.117Z,11.90
2024-01-24T12:51:07.298Z,11.70
2024-01-24T12:53:35.039Z,11.60
2024-01-24T12:56:02.730Z,11.50
2024-01-24T12:58:30.208Z,11.80
2024-01-24T13:00:57.776Z,12.10
2024-01-24T13:03:27.609Z,12.20
2024-01-24T13:05:57.034Z,12.20
2024-01-24T13:08:24.871Z,12.30
2024-01-24T13:10:58.248Z,12.40
2024-01-24T13:13:25.836Z,12.40
2024-01-24T13:15:55.087Z,12.40
2024-01-24T13:18:22.825Z,12.30
2024-01-24T13:20:52.957Z,12.10
2024-01-24T13:23:20.258Z,12.20
2024-01-24T13:25:50.691Z,12.10
2024-01-24T13:28:18.344Z,12.00
2024-01-24T13:30:45.845Z,12.00
2024-01-24T13:33:13.481Z,12.10
2024-01-24T13:35:40.811Z,12.10
2024-01-24T13:38:08.212Z,11.80
2024-01-24T13:40:35.671Z,11.60
2024-01-24T13:43:03.128Z,11.40
2024-01-24T13:45:31.361Z,11.40
2024-01-24T13:47:58.563Z,11.40
2024-01-24T13:50:26.175Z,11.30
2024-01-24T13:52:53.493Z,11.40
2024-01-24T13:55:22.820Z,11.40
2024-01-24T13:57:55.754Z,11.40
2024-01-24T14:00:23.161Z,11.30
2024-01-24T14:02:50.497Z,11.20
2024-01-24T14:05:18.759Z,11.10
2024-01-24T14:07:46.269Z,11.20
2024-01-24T14:10:14.274Z,11.20
2024-01-24T14:12:42.278Z,11.10
2024-01-24T14:15:20.351Z,11.00
2024-01-24T14:17:56.517Z,11.00
2024-01-24T14:20:24.947Z,10.90
2024-01-24T14:22:52.624Z,10.90
2024-01-24T14:25:19.825Z,10.90
2024-01-24T14:27:47.139Z,10.80
2024-01-24T14:30:15.049Z,10.80
2024-01-24T14:32:42.428Z,10.80
2024-01-24T14:35:10.317Z,10.80
2024-01-24T14:37:39.189Z,10.90
2024-01-24T14:40:07.543Z,10.90
2024-01-24T14:42:37.872Z,10.90
2024-01-24T14:45:07.611Z,10.90
2024-01-24T14:47:34.963Z,10.90
2024-01-24T14:50:02.444Z,10.80
2024-01-24T14:52:29.982Z,10.80
2024-01-24T14:55:06.087Z,10.70
2024-01-24T14:57:34.048Z,10.70
2024-01-24T15:00:02.179Z,10.60
2024-01-24T15:02:29.525Z,10.60
2024-01-24T15:04:59.959Z,10.50
2024-01-24T15:07:29.651Z,10.40
2024-01-24T15:10:02.722Z,10.40
2024-01-24T15:12:30.253Z,10.30
2024-01-24T15:15:01.096Z,10.30
2024-01-24T15:17:28.916Z,10.20
2024-01-24T15:19:56.369Z,10.20
2024-01-24T15:22:24.057Z,10.20
2024-01-24T15:24:54.433Z,10.20
2024-01-24T15:27:23.378Z,10.20
2024-01-24T15:29:52.409Z,10.20
2024-01-24T15:32:20.085Z,10.20
2024-01-24T15:34:48.600Z,10.10
2024-01-24T15:37:21.468Z,10.10
2024-01-24T15:39:51.788Z,10.00
2024-01-24T15:42:23.361Z,9.90
2024-01-24T15:44:51.286Z,9.90
2024-01-24T15:47:25.313Z,9.80
2024-01-24T15:49:52.790Z,9.80
2024-01-24T15:52:23.253Z,9.80
2024-01-24T15:54:53.237Z,9.70
2024-01-24T15:57:23.579Z,9.60
2024-01-24T15:59:51.429Z,9.60
2024-01-24T16:02:18.728Z,9.60
2024-01-24T16:04:59.047Z,9.50
2024-01-24T16:07:26.512Z,9.50
2024-01-24T16:09:55.078Z,9.60
2024-01-24T16:12:22.540Z,9.60
2024-01-24T16:14:49.981Z,9.60
2024-01-24T16:17:17.105Z,9.50
2024-01-24T16:19:44.404Z,9.50
2024-01-24T16:22:14.931Z,9.60
2024-01-24T16:24:42.532Z,9.50
2024-01-24T16:27:09.787Z,9.50
2024-01-24T16:29:36.940Z,9.50
2024-01-24T16:32:04.501Z,9.40
2024-01-24T16:34:31.873Z,9.50
2024-01-24T16:36:59.347Z,9.50
2024-01-24T16:39:26.742Z,9.40
2024-01-24T16:41:54.590Z,9.40
2024-01-24T16:44:23.700Z,9.40
2024-01-24T16:46:51.097Z,9.30
2024-01-24T16:49:18.321Z,9.30
2024-01-24T16:51:45.629Z,9.40
2024-01-24T16:54:12.963Z,9.40
2024-01-24T16:56:40.153Z,9.40
2024-01-24T16:59:08.452Z,9.40
2024-01-24T17:01:35.860Z,9.40
2024-01-24T17:04:06.371Z,9.40
2024-01-24T17:06:33.996Z,9.40
2024-01-24T17:09:01.450Z,9.40
2024-01-24T17:11:28.737Z,9.40
2024-01-24T17:13:56.142Z,9.40
2024-01-24T17:16:23.558Z,9.30
2024-01-24T17:18:51.073Z,9.30
2024-01-24T17:21:18.423Z,9.20
2024-01-24T17:23:46.906Z,9.30
2024-01-24T17:26:14.469Z,9.20
2024-01-24T17:28:41.852Z,9.30
2024-01-24T17:31:11.070Z,9.30
2024-01-24T17:33:38.600Z,9.40
2024-01-24T17:36:06.317Z,9.30
2024-01-24T17:38:33.790Z,9.30
2024-01-24T17:41:01.827Z,9.20
2024-01-24T17:43:29.915Z,9.20
2024-01-24T17:45:57.664Z,9.20
2024-01-24T17:48:25.304Z,9.20
2024-01-24T17:50:52.933Z,9.20
2024-01-24T17:53:20.356Z,9.20
2024-01-24T17:55:47.898Z,9.10
2024-01-24T17:58:18.278Z,9.00
2024-01-24T18:00:45.680Z,9.00
2024-01-24T18:03:13.237Z,8.90
2024-01-24T18:05:41.173Z,8.80
2024-01-24T18:08:08.865Z,8.80
2024-01-24T18:10:36.658Z,8.80
2024-01-24T18:13:04.189Z,8.90
2024-01-24T18:15:33.420Z,8.90
2024-01-24T18:18:01.945Z,8.90
2024-01-24T18:20:33.567Z,8.80
2024-01-24T18:23:01.752Z,8.80
2024-01-24T18:25:29.615Z,8.70
2024-01-24T18:27:57.075Z,8.70
2024-01-24T18:30:24.286Z,8.70
2024-01-24T18:32:54.964Z,8.70
2024-01-24T18:35:25.355Z,8.80
2024-01-24T18:37:52.959Z,8.80
2024-01-24T18:40:20.266Z,8.90
2024-01-24T18:42:52.082Z,8.90
2024-01-24T18:45:19.688Z,8.90
2024-01-24T18:47:48.616Z,9.00
2024-01-24T18:50:16.748Z,8.90
2024-01-24T18:52:45.477Z,8.90
2024-01-24T18:55:13.954Z,9.00
2024-01-24T18:57:41.513Z,9.00
2024-01-24T19:00:12.520Z,9.00
2024-01-24T19:02:40.189Z,9.00
2024-01-24T19:05:15.943Z,9.00
2024-01-24T19:07:47.568Z,9.00
2024-01-24T19:10:15.423Z,9.00
2024-01-24T19:12:42.307Z,9.00
2024-01-24T19:15:09.361Z,9.00
2024-01-24T19:17:37.265Z,8.90
2024-01-24T19:20:04.631Z,9.00
2024-01-24T19:22:32.008Z,8.90
2024-01-24T19:24:58.899Z,8.90
2024-01-24T19:27:25.766Z,8.90
2024-01-24T19:29:52.686Z,8.90
2024-01-24T19:32:19.601Z,8.90
2024-01-24T19:34:57.079Z,8.90
2024-01-24T19:37:23.979Z,8.80
2024-01-24T19:39:50.889Z,8.80
2024-01-24T19:42:17.926Z,8.80
2024-01-24T19:44:44.866Z,8.80
2024-01-24T19:47:11.695Z,8.80
2024-01-24T19:49:38.689Z,8.90
2024-01-24T19:52:05.819Z,8.80
2024-01-24T19:54:33.423Z,8.80
2024-01-24T19:57:00.405Z,8.80
2024-01-24T19:59:27.358Z,8.80
2024-01-24T20:01:55.368Z,8.80
2024-01-24T20:04:22.350Z,8.80
2024-01-24T20:06:49.284Z,8.70
2024-01-24T20:09:18.062Z,8.70
2024-01-24T20:11:45.583Z,8.70
2024-01-24T20:14:12.550Z,8.70
2024-01-24T20:16:39.674Z,8.70
2024-01-24T20:19:06.921Z,8.70
2024-01-24T20:21:39.865Z,8.60
2024-01-24T20:24:09.000Z,8.70
2024-01-24T20:26:35.980Z,8.60
2024-01-24T20:29:02.961Z,8.60
2024-01-24T20:31:29.965Z,8.60
2024-01-24T20:33:57.547Z,8.60
2024-01-24T20:36:24.818Z,8.60
2024-01-24T20:38:51.685Z,8.60
2024-01-24T20:41:18.571Z,8.70
2024-01-24T20:43:46.074Z,8.70
2024-01-24T20:46:14.418Z,8.60
2024-01-24T20:48:42.192Z,8.60
2024-01-24T20:51:09.443Z,8.50
2024-01-24T20:53:36.496Z,8.40
2024-01-24T20:56:04.473Z,8.40
2024-01-24T20:58:31.734Z,8.20
2024-01-24T21:00:59.687Z,8.10
2024-01-24T21:03:26.872Z,8.10
2024-01-24T21:05:56.023Z,8.00
2024-01-24T21:08:24.534Z,8.10
2024-01-24T21:10:55.914Z,8.10
2024-01-24T21:13:29.626Z,8.10
2024-01-24T21:15:56.755Z,8.20
2024-01-24T21:18:24.117Z,8.20
2024-01-24T21:20:51.434Z,8.20
2024-01-24T21:23:18.491Z,8.20
2024-01-24T21:25:45.375Z,8.20
2024-01-24T21:28:12.276Z,8.10
2024-01-24T21:30:39.318Z,8.20
2024-01-24T21:33:06.296Z,8.20
2024-01-24T21:35:33.150Z,8.20
2024-01-24T21:38:00.057Z,8.20
2024-01-24T21:40:26.855Z,8.20
2024-01-24T21:42:53.854Z,8.20
2024-01-24T21:45:20.808Z,8.20
2024-01-24T21:47:47.662Z,8.20
2024-01-24T21:50:14.571Z,8.20
2024-01-24T21:52:41.371Z,8.20
2024-01-24T21:55:08.639Z,8.20
2024-01-24T21:57:35.567Z,8.20
2024-01-24T22:00:02.568Z,8.20
2024-01-24T22:02:29.467Z,8.30
2024-01-24T22:04:56.291Z,8.30
2024-01-24T22:07:23.243Z,8.30
2024-01-24T22:09:52.402Z,8.30
2024-01-24T22:12:19.317Z,8.30
2024-01-24T22:14:46.240Z,8.30
2024-01-24T22:17:13.285Z,8.30
2024-01-24T22:19:40.263Z,8.40
2024-01-24T22:22:07.261Z,8.30
2024-01-24T22:24:34.225Z,8.40
2024-01-24T22:27:01.158Z,8.30
2024-01-24T22:29:28.319Z,8.30
2024-01-24T22:31:55.172Z,8.30
2024-01-24T22:34:22.289Z,8.40
2024-01-24T22:36:49.327Z,8.30
2024-01-24T22:39:16.714Z,8.30
2024-01-24T22:41:43.673Z,8.30
2024-01-24T22:44:11.293Z,8.30
2024-01-24T22:46:41.551Z,8.30
2024-01-24T22:49:09.832Z,8.20
2024-01-24T22:51:37.326Z,8.30
2024-01-24T22:54:04.282Z,8.30
2024-01-24T22:56:31.737Z,8.30
2024-01-24T22:58:58.588Z,8.30
2024-01-24T23:01:26.197Z,8.30
2024-01-24T23:03:53.106Z,8.30
2024-01-24T23:06:20.070Z,8.30
2024-01-24T23:08:46.949Z,8.30
2024-01-24T23:11:14.127Z,8.30
2024-01-24T23:13:41.782Z,8.30
2024-01-24T23:16:09.396Z,8.40
2024-01-24T23:18:36.599Z,8.30
2024-01-24T23:21:03.680Z,8.40
2024-01-24T23:23:30.752Z,8.40
2024-01-24T23:25:57.716Z,8.30
2024-01-24T23:28:24.762Z,8.40
2024-01-24T23:30:52.213Z,8.40
2024-01-24T23:33:19.486Z,8.40
2024-01-24T23:35:46.470Z,8.30
2024-01-24T23:38:13.378Z,8.30
2024-01-24T23:40:40.412Z,8.30
2024-01-24T23:43:07.379Z,8.20
2024-01-24T23:45:34.366Z,8.30
2024-01-24T23:48:01.430Z,8.20
2024-01-24T23:50:28.588Z,8.20
2024-01-24T23:52:58.790Z,8.30
2024-01-24T23:55:26.903Z,8.30
2024-01-24T23:57:55.122Z,8.30
